AWE1590 KMSN-KMEM
Flight info
| Callsign | AWE1590 |
|---|---|
| Flight time | N/A |
| Altitude | 36000 |
| Route | KMSN/21 N0431F360 DCT BDF DCT SPI/N0435F370 DCT ENL/N0437F360 DCT NMANN HYTHR3 KMEM/18L |
| Aircraft | A20N/M-V/N |
Departure
| Time | 2026-04-21 23:43 |
|---|---|
| Airport | Dane County Regional Truax Field (KMSN) |
Arrival
| Time | N/A |
|---|---|
| Airport | Memphis International Airport (KMEM) |
| Time | Latitude | Longitude | Altitude | Speed | Heading |
|---|---|---|---|---|---|
| 2026-04-21 23:17 | 43.13813 | -89.34525 | 849 ft | 0 kts | 215° |
| 2026-04-21 23:23 | 43.13827 | -89.34513 | 851 ft | 4 kts | 197° |
| 2026-04-21 23:23 | 43.13848 | -89.34513 | 859 ft | 4 kts | 131° |
| 2026-04-21 23:23 | 43.13854 | -89.34529 | 853 ft | 1 kts | 92° |
| 2026-04-21 23:23 | 43.13854 | -89.34533 | 852 ft | 1 kts | 92° |
| 2026-04-21 23:25 | 43.13854 | -89.34531 | 853 ft | 1 kts | 92° |
| 2026-04-21 23:26 | 43.13854 | -89.34520 | 866 ft | 1 kts | 92° |
| 2026-04-21 23:26 | 43.13853 | -89.34504 | 866 ft | 2 kts | 92° |
| 2026-04-21 23:26 | 43.13853 | -89.34477 | 866 ft | 4 kts | 92° |
| 2026-04-21 23:26 | 43.13852 | -89.34456 | 867 ft | 0 kts | 92° |
| 2026-04-21 23:28 | 43.13852 | -89.34454 | 867 ft | 1 kts | 92° |
| 2026-04-21 23:28 | 43.13851 | -89.34414 | 866 ft | 18 kts | 92° |
| 2026-04-21 23:28 | 43.13919 | -89.34296 | 867 ft | 17 kts | 10° |
| 2026-04-21 23:28 | 43.14030 | -89.34296 | 870 ft | 16 kts | 355° |
| 2026-04-21 23:29 | 43.14136 | -89.34345 | 871 ft | 16 kts | 344° |
| 2026-04-21 23:29 | 43.14247 | -89.34353 | 872 ft | 17 kts | 2° |
| 2026-04-21 23:29 | 43.14371 | -89.34346 | 871 ft | 19 kts | 2° |
| 2026-04-21 23:29 | 43.14514 | -89.34340 | 869 ft | 22 kts | 2° |
| 2026-04-21 23:30 | 43.14645 | -89.34333 | 866 ft | 20 kts | 3° |
| 2026-04-21 23:30 | 43.14782 | -89.34292 | 851 ft | 19 kts | 14° |
| 2026-04-21 23:30 | 43.14897 | -89.34218 | 850 ft | 19 kts | 71° |
| 2026-04-21 23:30 | 43.14899 | -89.34178 | 859 ft | 0 kts | 89° |
| 2026-04-21 23:31 | 43.14899 | -89.34177 | 859 ft | 1 kts | 89° |
| 2026-04-21 23:31 | 43.14898 | -89.34025 | 867 ft | 22 kts | 88° |
| 2026-04-21 23:31 | 43.14893 | -89.33839 | 870 ft | 12 kts | 117° |
| 2026-04-21 23:32 | 43.14813 | -89.33810 | 870 ft | 14 kts | 181° |
| 2026-04-21 23:32 | 43.14710 | -89.33812 | 869 ft | 16 kts | 174° |
| 2026-04-21 23:32 | 43.14614 | -89.33723 | 866 ft | 19 kts | 137° |
| 2026-04-21 23:32 | 43.14513 | -89.33593 | 865 ft | 21 kts | 138° |
| 2026-04-21 23:33 | 43.14396 | -89.33453 | 862 ft | 24 kts | 139° |
| 2026-04-21 23:33 | 43.14303 | -89.33299 | 859 ft | 18 kts | 85° |
| 2026-04-21 23:33 | 43.14388 | -89.33211 | 867 ft | 15 kts | 30° |
| 2026-04-21 23:33 | 43.14477 | -89.33136 | 868 ft | 15 kts | 31° |
| 2026-04-21 23:34 | 43.14575 | -89.33059 | 868 ft | 17 kts | 28° |
| 2026-04-21 23:34 | 43.14681 | -89.32981 | 868 ft | 18 kts | 28° |
| 2026-04-21 23:34 | 43.14805 | -89.32887 | 865 ft | 22 kts | 29° |
| 2026-04-21 23:34 | 43.14923 | -89.32797 | 865 ft | 13 kts | 28° |
| 2026-04-21 23:35 | 43.15009 | -89.32785 | 851 ft | 8 kts | 327° |
| 2026-04-21 23:35 | 43.15011 | -89.32787 | 852 ft | 0 kts | 324° |
| 2026-04-21 23:41 | 43.15018 | -89.32794 | 854 ft | 2 kts | 324° |
| 2026-04-21 23:41 | 43.15032 | -89.32816 | 862 ft | 4 kts | 305° |
| 2026-04-21 23:41 | 43.15044 | -89.32850 | 851 ft | 4 kts | 289° |
| 2026-04-21 23:42 | 43.15037 | -89.32887 | 863 ft | 4 kts | 233° |
| 2026-04-21 23:42 | 43.15010 | -89.32910 | 866 ft | 7 kts | 210° |
| 2026-04-21 23:42 | 43.14738 | -89.33112 | 869 ft | 87 kts | 208° |
| 2026-04-21 23:42 | 43.14010 | -89.33684 | 883 ft | 149 kts | 208° |
| 2026-04-21 23:43 | 43.13106 | -89.34357 | 1640 ft | 149 kts | 205° |
| 2026-04-21 23:43 | 43.12195 | -89.35020 | 2570 ft | 147 kts | 207° |
| 2026-04-21 23:43 | 43.11232 | -89.35501 | 3293 ft | 151 kts | 187° |
| 2026-04-21 23:43 | 43.10134 | -89.35601 | 3547 ft | 168 kts | 187° |
| 2026-04-21 23:44 | 43.08898 | -89.35739 | 3774 ft | 189 kts | 187° |
| 2026-04-21 23:44 | 43.07531 | -89.35900 | 4084 ft | 207 kts | 187° |
| 2026-04-21 23:44 | 43.06028 | -89.36081 | 4408 ft | 228 kts | 188° |
| 2026-04-21 23:44 | 43.04360 | -89.36285 | 4821 ft | 251 kts | 188° |
| 2026-04-21 23:45 | 43.02581 | -89.36499 | 5494 ft | 262 kts | 188° |
| 2026-04-21 23:45 | 42.98864 | -89.36948 | 7012 ft | 275 kts | 189° |
| 2026-04-21 23:45 | 42.96935 | -89.37186 | 7755 ft | 280 kts | 189° |
| 2026-04-21 23:46 | 42.94971 | -89.37430 | 8484 ft | 286 kts | 190° |
| 2026-04-21 23:46 | 42.92967 | -89.37678 | 9216 ft | 292 kts | 191° |
| 2026-04-21 23:46 | 42.90924 | -89.37931 | 9945 ft | 297 kts | 191° |
| 2026-04-21 23:46 | 42.88839 | -89.38188 | 10483 ft | 308 kts | 191° |
| 2026-04-21 23:47 | 42.86622 | -89.38468 | 10677 ft | 331 kts | 191° |
| 2026-04-21 23:47 | 42.84285 | -89.38760 | 11154 ft | 342 kts | 191° |
| 2026-04-21 23:47 | 42.81898 | -89.39048 | 11778 ft | 347 kts | 191° |
| 2026-04-21 23:47 | 42.79479 | -89.39337 | 12439 ft | 351 kts | 191° |
| 2026-04-21 23:48 | 42.77029 | -89.39632 | 13105 ft | 355 kts | 191° |
| 2026-04-21 23:48 | 42.74551 | -89.39933 | 13761 ft | 360 kts | 191° |
| 2026-04-21 23:48 | 42.72043 | -89.40241 | 14312 ft | 364 kts | 191° |
| 2026-04-21 23:48 | 42.69503 | -89.40552 | 14885 ft | 368 kts | 191° |
| 2026-04-21 23:49 | 42.66938 | -89.40861 | 15448 ft | 372 kts | 191° |
| 2026-04-21 23:49 | 42.64344 | -89.41172 | 16013 ft | 376 kts | 191° |
| 2026-04-21 23:49 | 42.61723 | -89.41490 | 16573 ft | 380 kts | 191° |
| 2026-04-21 23:49 | 42.59078 | -89.41811 | 17115 ft | 384 kts | 191° |
| 2026-04-21 23:50 | 42.56397 | -89.42134 | 17668 ft | 388 kts | 191° |
| 2026-04-21 23:50 | 42.53690 | -89.42462 | 18217 ft | 393 kts | 191° |
| 2026-04-21 23:50 | 42.50957 | -89.42794 | 18733 ft | 397 kts | 191° |
| 2026-04-21 23:50 | 42.48232 | -89.43126 | 19239 ft | 400 kts | 192° |
| 2026-04-21 23:51 | 42.45412 | -89.43473 | 19769 ft | 403 kts | 192° |
| 2026-04-21 23:51 | 42.42606 | -89.43817 | 20306 ft | 407 kts | 192° |
| 2026-04-21 23:51 | 42.39817 | -89.44156 | 20804 ft | 410 kts | 192° |
| 2026-04-21 23:51 | 42.36963 | -89.44498 | 21290 ft | 413 kts | 192° |
| 2026-04-21 23:52 | 42.34089 | -89.44840 | 21783 ft | 416 kts | 192° |
| 2026-04-21 23:52 | 42.31190 | -89.45182 | 22267 ft | 420 kts | 192° |
| 2026-04-21 23:52 | 42.28273 | -89.45529 | 22774 ft | 423 kts | 192° |
| 2026-04-21 23:52 | 42.25336 | -89.45882 | 23282 ft | 426 kts | 192° |
| 2026-04-21 23:53 | 42.22373 | -89.46241 | 23771 ft | 429 kts | 192° |
| 2026-04-21 23:53 | 42.19392 | -89.46601 | 24165 ft | 432 kts | 192° |
| 2026-04-21 23:53 | 42.16383 | -89.46962 | 24574 ft | 435 kts | 192° |
| 2026-04-21 23:53 | 42.13359 | -89.47324 | 24954 ft | 438 kts | 192° |
| 2026-04-21 23:54 | 42.10305 | -89.47686 | 25336 ft | 442 kts | 192° |
| 2026-04-21 23:54 | 42.07238 | -89.48051 | 25717 ft | 444 kts | 192° |
| 2026-04-21 23:54 | 42.04147 | -89.48417 | 26097 ft | 447 kts | 192° |
| 2026-04-21 23:54 | 42.01034 | -89.48782 | 26467 ft | 450 kts | 192° |
| 2026-04-21 23:55 | 41.97905 | -89.49149 | 26806 ft | 453 kts | 192° |
| 2026-04-21 23:55 | 41.94749 | -89.49526 | 27155 ft | 456 kts | 192° |
| 2026-04-21 23:55 | 41.91577 | -89.49908 | 27504 ft | 459 kts | 191° |
| 2026-04-21 23:55 | 41.88384 | -89.50291 | 27836 ft | 462 kts | 191° |
| 2026-04-21 23:56 | 41.85171 | -89.50673 | 28173 ft | 465 kts | 191° |
| 2026-04-21 23:56 | 41.81938 | -89.51055 | 28513 ft | 468 kts | 191° |
| 2026-04-21 23:56 | 41.78686 | -89.51438 | 28860 ft | 471 kts | 191° |
| 2026-04-21 23:56 | 41.75413 | -89.51823 | 29186 ft | 473 kts | 191° |
| 2026-04-21 23:57 | 41.72121 | -89.52212 | 29509 ft | 476 kts | 191° |
| 2026-04-21 23:57 | 41.68811 | -89.52606 | 29842 ft | 479 kts | 191° |
| 2026-04-21 23:57 | 41.65487 | -89.53002 | 30176 ft | 482 kts | 191° |
| 2026-04-21 23:57 | 41.62138 | -89.53398 | 30450 ft | 485 kts | 191° |
| 2026-04-21 23:58 | 41.58764 | -89.53794 | 30730 ft | 487 kts | 191° |
| 2026-04-21 23:58 | 41.55381 | -89.54189 | 30979 ft | 489 kts | 191° |
| 2026-04-21 23:58 | 41.51983 | -89.54585 | 31268 ft | 491 kts | 191° |
| 2026-04-21 23:58 | 41.48571 | -89.54984 | 31547 ft | 494 kts | 191° |
| 2026-04-21 23:59 | 41.45143 | -89.55387 | 31843 ft | 495 kts | 191° |
| 2026-04-21 23:59 | 41.41719 | -89.55787 | 32231 ft | 494 kts | 191° |
| 2026-04-21 23:59 | 41.38292 | -89.56183 | 32622 ft | 494 kts | 191° |
| 2026-04-21 23:59 | 41.34874 | -89.56577 | 32991 ft | 493 kts | 191° |
| 2026-04-22 00:00 | 41.31454 | -89.56971 | 33355 ft | 493 kts | 191° |
| 2026-04-22 00:00 | 41.28040 | -89.57369 | 33748 ft | 492 kts | 192° |
| 2026-04-22 00:00 | 41.24630 | -89.57770 | 34135 ft | 492 kts | 192° |
| 2026-04-22 00:00 | 41.21271 | -89.58163 | 34469 ft | 491 kts | 192° |
| 2026-04-22 00:01 | 41.17871 | -89.58559 | 34800 ft | 490 kts | 192° |
| 2026-04-22 00:01 | 41.14473 | -89.58943 | 35137 ft | 490 kts | 191° |
| 2026-04-22 00:01 | 41.11028 | -89.59254 | 35458 ft | 489 kts | 190° |
| 2026-04-22 00:01 | 41.07632 | -89.59490 | 35794 ft | 489 kts | 189° |
| 2026-04-22 00:02 | 41.04282 | -89.59682 | 36100 ft | 488 kts | 189° |
| 2026-04-22 00:02 | 40.97526 | -89.60050 | 36209 ft | 483 kts | 189° |
| 2026-04-22 00:03 | 40.90830 | -89.60480 | 36204 ft | 481 kts | 189° |
| 2026-04-22 00:03 | 40.84158 | -89.60964 | 36217 ft | 480 kts | 190° |
| 2026-04-22 00:04 | 40.77489 | -89.61449 | 36215 ft | 480 kts | 190° |
| 2026-04-22 00:04 | 40.70812 | -89.61921 | 36226 ft | 480 kts | 189° |
| 2026-04-22 00:05 | 40.64140 | -89.62363 | 36224 ft | 480 kts | 189° |
| 2026-04-22 00:05 | 40.57457 | -89.62813 | 36233 ft | 481 kts | 189° |
| 2026-04-22 00:06 | 40.50773 | -89.63261 | 36234 ft | 481 kts | 189° |
| 2026-04-22 00:06 | 40.44091 | -89.63721 | 36216 ft | 481 kts | 190° |
| 2026-04-22 00:07 | 40.37416 | -89.64179 | 36226 ft | 480 kts | 189° |
| 2026-04-22 00:07 | 40.31866 | -89.64556 | 36235 ft | 480 kts | 189° |
| 2026-04-22 00:08 | 40.25198 | -89.65003 | 36218 ft | 480 kts | 189° |
| 2026-04-22 00:08 | 40.18534 | -89.65453 | 36230 ft | 479 kts | 190° |
| 2026-04-22 00:09 | 40.11871 | -89.65904 | 36238 ft | 479 kts | 189° |
| 2026-04-22 00:09 | 40.05212 | -89.66351 | 36235 ft | 479 kts | 189° |
| 2026-04-22 00:10 | 39.98555 | -89.66795 | 36223 ft | 479 kts | 189° |
| 2026-04-22 00:10 | 39.91905 | -89.67238 | 36236 ft | 478 kts | 189° |
| 2026-04-22 00:11 | 39.85245 | -89.67508 | 36248 ft | 484 kts | 182° |
| 2026-04-22 00:11 | 39.78579 | -89.65770 | 36230 ft | 493 kts | 168° |
| 2026-04-22 00:12 | 39.71993 | -89.63283 | 36241 ft | 493 kts | 168° |
| 2026-04-22 00:12 | 39.65400 | -89.60847 | 36246 ft | 492 kts | 169° |
| 2026-04-22 00:13 | 39.58140 | -89.58176 | 36258 ft | 492 kts | 168° |
| 2026-04-22 00:13 | 39.51560 | -89.55740 | 36253 ft | 491 kts | 168° |
| 2026-04-22 00:14 | 39.44987 | -89.53310 | 36263 ft | 491 kts | 168° |
| 2026-04-22 00:14 | 39.38418 | -89.50892 | 36260 ft | 491 kts | 168° |
| 2026-04-22 00:15 | 39.31851 | -89.48483 | 36241 ft | 490 kts | 168° |
| 2026-04-22 00:15 | 39.25299 | -89.46074 | 36253 ft | 490 kts | 168° |
| 2026-04-22 00:16 | 39.18749 | -89.43668 | 36262 ft | 489 kts | 168° |
| 2026-04-22 00:16 | 39.12201 | -89.41267 | 36267 ft | 489 kts | 168° |
| 2026-04-22 00:17 | 39.05649 | -89.38882 | 36274 ft | 489 kts | 169° |
| 2026-04-22 00:17 | 38.99104 | -89.36505 | 36278 ft | 489 kts | 169° |
| 2026-04-22 00:18 | 38.92561 | -89.34127 | 36276 ft | 488 kts | 168° |
| 2026-04-22 00:18 | 38.86025 | -89.31750 | 36258 ft | 488 kts | 168° |
| 2026-04-22 00:19 | 38.79493 | -89.29383 | 36274 ft | 488 kts | 168° |
| 2026-04-22 00:19 | 38.72961 | -89.27026 | 36278 ft | 488 kts | 169° |
| 2026-04-22 00:20 | 38.66470 | -89.24691 | 36285 ft | 488 kts | 169° |
| 2026-04-22 00:20 | 38.59939 | -89.22341 | 36288 ft | 488 kts | 169° |
| 2026-04-22 00:21 | 38.53403 | -89.19981 | 36281 ft | 488 kts | 169° |
| 2026-04-22 00:21 | 38.46855 | -89.17646 | 36275 ft | 488 kts | 171° |
| 2026-04-22 00:22 | 38.40223 | -89.16746 | 36272 ft | 473 kts | 189° |
| 2026-04-22 00:22 | 38.33807 | -89.17972 | 36277 ft | 464 kts | 199° |
| 2026-04-22 00:23 | 38.27474 | -89.19575 | 36270 ft | 464 kts | 199° |
| 2026-04-22 00:23 | 38.21128 | -89.21175 | 36278 ft | 465 kts | 198° |
| 2026-04-22 00:24 | 38.15048 | -89.23486 | 36257 ft | 444 kts | 219° |
| 2026-04-22 00:24 | 38.12587 | -89.25722 | 36230 ft | 431 kts | 229° |
| 2026-04-22 00:24 | 38.10302 | -89.28189 | 36240 ft | 431 kts | 229° |
| 2026-04-22 00:25 | 38.05749 | -89.33137 | 36244 ft | 431 kts | 229° |
| 2026-04-22 00:25 | 38.01184 | -89.38085 | 36255 ft | 432 kts | 229° |
| 2026-04-22 00:26 | 37.97384 | -89.42190 | 36258 ft | 432 kts | 229° |
| 2026-04-22 00:26 | 37.92806 | -89.47124 | 36249 ft | 432 kts | 229° |
| 2026-04-22 00:27 | 37.88226 | -89.52054 | 36261 ft | 432 kts | 229° |
| 2026-04-22 00:27 | 37.83638 | -89.56969 | 36258 ft | 432 kts | 228° |
| 2026-04-22 00:28 | 37.79043 | -89.61875 | 36261 ft | 432 kts | 228° |
| 2026-04-22 00:28 | 37.74455 | -89.66785 | 36258 ft | 432 kts | 229° |
| 2026-04-22 00:29 | 37.69871 | -89.71697 | 36242 ft | 432 kts | 228° |
| 2026-04-22 00:29 | 37.65286 | -89.76589 | 36265 ft | 431 kts | 228° |
| 2026-04-22 00:30 | 37.60697 | -89.81462 | 36272 ft | 431 kts | 228° |
| 2026-04-22 00:30 | 37.56112 | -89.86331 | 36281 ft | 431 kts | 228° |
| 2026-04-22 00:31 | 37.51527 | -89.91191 | 36282 ft | 430 kts | 228° |
| 2026-04-22 00:31 | 37.46946 | -89.96041 | 36259 ft | 430 kts | 228° |
| 2026-04-22 00:32 | 37.42370 | -90.00891 | 36257 ft | 430 kts | 227° |
| 2026-04-22 00:32 | 37.37795 | -90.05725 | 36274 ft | 429 kts | 227° |
| 2026-04-22 00:33 | 37.33223 | -90.10549 | 36279 ft | 429 kts | 227° |
| 2026-04-22 00:33 | 37.28646 | -90.15358 | 36280 ft | 429 kts | 227° |
| 2026-04-22 00:34 | 37.24073 | -90.20162 | 36282 ft | 429 kts | 227° |
| 2026-04-22 00:34 | 37.19495 | -90.24956 | 36263 ft | 428 kts | 227° |
| 2026-04-22 00:35 | 37.14958 | -90.29713 | 36269 ft | 428 kts | 227° |